Time;durP1;ratioP1;P1;durP2;ratioP2;P2;SDS_P1;SDS_P2;PMS_P1;PMS_P2;Temp;Humidity;BMP_temperature;BMP_pressure;BME280_temperature;BME280_humidity;BME280_pressure;Samples;Min_cycle;Max_cycle;Signal;HPM_P1;HPM_P2
2023/02/12 00:01:34;;;;;;;32.47;23.40;;;6.30;99.90;;;;;;4986600;28;20045;-71
2023/02/12 00:04:00;;;;;;;41.80;24.58;;;6.30;99.90;;;;;;4989568;28;20057;-72
2023/02/12 00:06:26;;;;;;;42.13;26.73;;;6.30;99.90;;;;;;4973102;28;20710;-72
2023/02/12 00:08:54;;;;;;;44.80;26.20;;;6.30;99.90;;;;;;4973371;28;20590;-72
2023/02/12 00:11:27;;;;;;;40.42;25.27;;;6.30;99.90;;;;;;4988420;28;20049;-72
2023/02/12 00:13:55;;;;;;;38.05;26.13;;;6.30;99.90;;;;;;5021974;28;20050;-72
2023/02/12 00:16:27;;;;;;;42.83;26.27;;;6.30;99.90;;;;;;4989287;28;20049;-72
2023/02/12 00:18:54;;;;;;;44.53;26.08;;;6.30;99.90;;;;;;5010231;28;20480;-72
2023/02/12 00:21:21;;;;;;;41.60;26.17;;;6.30;99.90;;;;;;5009052;28;20075;-72
2023/02/12 00:23:47;;;;;;;43.22;27.35;;;6.30;99.90;;;;;;4993324;28;20140;-72
2023/02/12 00:26:16;;;;;;;42.45;26.60;;;6.30;99.90;;;;;;4977340;28;20064;-72
2023/02/12 00:28:42;;;;;;;47.63;27.30;;;6.30;99.90;;;;;;4992946;28;20049;-72
2023/02/12 00:31:11;;;;;;;43.35;27.10;;;6.30;99.90;;;;;;5007774;28;20044;-72
2023/02/12 00:33:37;;;;;;;41.35;27.25;;;6.30;99.90;;;;;;4993919;28;20045;-72
2023/02/12 00:36:04;;;;;;;43.85;27.20;;;6.30;99.90;;;;;;4978392;28;20484;-74
2023/02/12 00:38:30;;;;;;;49.65;29.23;;;6.30;99.90;;;;;;5010095;28;20177;-73
2023/02/12 00:40:56;;;;;;;43.88;26.38;;;6.30;99.90;;;;;;5007313;28;20045;-72
2023/02/12 00:43:22;;;;;;;48.25;27.10;;;6.30;99.90;;;;;;5010104;28;20055;-72
2023/02/12 00:45:47;;;;;;;47.40;29.17;;;6.30;99.90;;;;;;4991308;28;20041;-72
2023/02/12 00:48:14;;;;;;;42.80;28.02;;;6.30;99.90;;;;;;5008708;28;20111;-72
2023/02/12 00:50:40;;;;;;;50.10;29.83;;;6.30;99.90;;;;;;4991789;28;20171;-73
2023/02/12 00:53:07;;;;;;;49.88;28.13;;;6.20;99.90;;;;;;4991504;28;20437;-72
2023/02/12 00:55:33;;;;;;;45.17;29.08;;;6.20;99.90;;;;;;5009279;28;20818;-72
2023/02/12 00:58:00;;;;;;;50.35;30.98;;;6.20;99.90;;;;;;5009426;28;20033;-72
2023/02/12 01:00:26;;;;;;;46.90;27.83;;;6.20;99.90;;;;;;4983518;28;20140;-72
2023/02/12 01:02:52;;;;;;;43.00;27.38;;;6.20;99.90;;;;;;4999914;28;20057;-74
2023/02/12 01:05:18;;;;;;;47.35;30.77;;;6.20;99.90;;;;;;4981290;28;20107;-74
2023/02/12 01:07:52;;;;;;;45.50;29.40;;;6.20;99.90;;;;;;4981611;28;20053;-74
2023/02/12 01:10:21;;;;;;;48.97;29.55;;;6.20;99.90;;;;;;4996884;28;20668;-73
2023/02/12 01:12:47;;;;;;;45.45;29.30;;;6.20;99.90;;;;;;4978837;28;20046;-72
2023/02/12 01:15:14;;;;;;;51.42;30.58;;;6.20;99.90;;;;;;4979049;28;20053;-72
2023/02/12 01:17:39;;;;;;;50.70;31.60;;;6.20;99.90;;;;;;4981719;28;20049;-72
2023/02/12 01:20:16;;;;;;;48.17;30.35;;;6.20;99.90;;;;;;4977113;28;20045;-72
2023/02/12 01:22:42;;;;;;;52.53;29.80;;;6.20;99.90;;;;;;4980148;28;20127;-74
2023/02/12 01:25:08;;;;;;;49.90;31.40;;;6.20;99.90;;;;;;4994923;28;20137;-72
2023/02/12 01:27:34;;;;;;;56.53;31.90;;;6.10;99.90;;;;;;4995808;28;20060;-71
2023/02/12 01:30:00;;;;;;;47.38;30.30;;;6.10;99.90;;;;;;4980764;28;20041;-72
2023/02/12 01:32:26;;;;;;;52.92;31.17;;;6.10;99.90;;;;;;4993716;28;20053;-71
2023/02/12 01:34:52;;;;;;;55.08;30.98;;;6.10;99.90;;;;;;4994259;28;20107;-72
2023/02/12 01:37:18;;;;;;;54.33;31.17;;;6.20;99.90;;;;;;4973812;28;20046;-72
2023/02/12 01:39:44;;;;;;;49.97;31.33;;;6.20;99.90;;;;;;4983363;28;20060;-72
2023/02/12 01:42:17;;;;;;;50.03;29.77;;;6.20;99.90;;;;;;4994431;28;20045;-71
2023/02/12 01:45:11;;;;;;;49.35;29.50;;;6.20;99.90;;;;;;4981805;28;20069;-72
2023/02/12 01:47:38;;;;;;;50.80;30.38;;;6.20;99.90;;;;;;4981826;28;20077;-72
2023/02/12 01:50:10;;;;;;;57.22;31.38;;;6.20;99.90;;;;;;4978713;28;20049;-72
2023/02/12 01:52:41;;;;;;;60.35;33.58;;;6.20;99.90;;;;;;4981743;28;20072;-72
2023/02/12 01:55:09;;;;;;;51.83;31.30;;;6.20;99.90;;;;;;4981692;28;20041;-72
2023/02/12 01:57:38;;;;;;;54.42;32.22;;;6.10;99.90;;;;;;4996904;28;20054;-73
2023/02/12 02:00:09;;;;;;;60.15;32.17;;;6.10;99.90;;;;;;4999100;28;20512;-73
2023/02/12 02:02:38;;;;;;;57.90;31.95;;;6.10;99.90;;;;;;4981320;28;20057;-72
2023/02/12 02:05:04;;;;;;;52.55;29.92;;;6.10;99.90;;;;;;4981101;28;20396;-72
2023/02/12 02:07:33;;;;;;;61.75;33.92;;;6.10;99.90;;;;;;4995399;28;20132;-74
2023/02/12 02:10:00;;;;;;;47.05;28.25;;;6.10;99.90;;;;;;4979231;28;20117;-71
2023/02/12 02:15:11;;;;;;;75.10;34.92;;;6.00;99.90;;;;;;4998538;28;20703;-72
2023/02/12 02:17:42;;;;;;;73.28;34.67;;;6.00;99.90;;;;;;4981045;28;20198;-71
2023/02/12 02:20:14;;;;;;;83.93;36.17;;;6.00;99.90;;;;;;4980292;28;20050;-71
2023/02/12 02:22:42;;;;;;;65.75;32.20;;;6.00;99.90;;;;;;4997410;28;20057;-74
2023/02/12 02:25:49;;;;;;;46.13;29.35;;;5.90;99.90;;;;;;4995440;28;20601;-74
2023/02/12 02:28:36;;;;;;;46.85;29.80;;;5.90;99.90;;;;;;4979433;28;20104;-72
2023/02/12 02:31:20;;;;;;;85.45;36.85;;;5.90;99.90;;;;;;4991715;28;20050;-72
2023/02/12 02:34:42;;;;;;;67.47;35.47;;;5.90;99.90;;;;;;4990960;28;20046;-72
2023/02/12 02:37:17;;;;;;;72.82;32.78;;;5.90;99.90;;;;;;4929319;28;20054;-71
2023/02/12 02:40:06;;;;;;;70.53;32.72;;;5.80;99.90;;;;;;4996391;28;20071;-71
2023/02/12 02:42:41;;;;;;;44.42;28.20;;;5.80;99.90;;;;;;4983334;28;20396;-71
2023/02/12 02:45:12;;;;;;;42.90;28.20;;;5.80;99.90;;;;;;4996808;28;20058;-71
2023/02/12 02:47:48;;;;;;;71.60;33.00;;;5.80;99.90;;;;;;4993414;28;20049;-71
2023/02/12 02:50:19;;;;;;;115.97;39.85;;;5.80;99.90;;;;;;4979391;28;20053;-72
2023/02/12 02:53:00;;;;;;;110.75;39.88;;;5.80;99.90;;;;;;4993712;28;20046;-72
2023/02/12 02:55:31;;;;;;;100.07;38.80;;;5.80;99.90;;;;;;4981375;28;20085;-72
2023/02/12 02:58:09;;;;;;;63.20;32.28;;;5.80;99.90;;;;;;4980683;28;20042;-71
2023/02/12 03:00:48;;;;;;;82.93;36.10;;;5.80;99.90;;;;;;4993567;28;20065;-73
2023/02/12 03:03:39;;;;;;;48.28;30.15;;;5.80;99.90;;;;;;4989742;28;20059;-71
2023/02/12 03:06:12;;;;;;;88.97;37.95;;;5.80;99.90;;;;;;4999283;28;20053;-71
2023/02/12 03:08:45;;;;;;;65.78;31.77;;;5.80;99.90;;;;;;4975221;28;20045;-72
2023/02/12 03:11:29;;;;;;;43.30;27.50;;;5.80;99.90;;;;;;4991317;28;20049;-71
2023/02/12 03:14:14;;;;;;;56.15;30.33;;;5.80;99.90;;;;;;4981366;28;20164;-72
2023/02/12 03:17:07;;;;;;;51.92;28.98;;;5.70;99.90;;;;;;4982865;28;20094;-74
2023/02/12 03:19:42;;;;;;;85.60;36.08;;;5.70;99.90;;;;;;4994594;28;20052;-71
2023/02/12 03:22:13;;;;;;;75.53;33.67;;;5.70;99.90;;;;;;4994694;28;20073;-71
2023/02/12 03:25:17;;;;;;;46.72;27.52;;;5.70;99.90;;;;;;4982698;28;20045;-71
2023/02/12 03:27:57;;;;;;;64.43;31.13;;;5.70;99.90;;;;;;4911925;29;20323;-72
2023/02/12 03:30:28;;;;;;;82.93;35.00;;;5.70;99.90;;;;;;4912594;29;20073;-71
2023/02/12 03:33:06;;;;;;;43.00;27.77;;;5.70;99.90;;;;;;4964341;28;20137;-71
2023/02/12 03:36:06;;;;;;;62.90;31.05;;;5.70;99.90;;;;;;4983691;28;20580;-72
2023/02/12 03:38:43;;;;;;;70.63;32.42;;;5.70;99.90;;;;;;4974217;28;20523;-72
2023/02/12 03:41:17;;;;;;;90.25;35.75;;;5.70;99.90;;;;;;4974993;28;20076;-72
2023/02/12 03:43:51;;;;;;;52.92;29.60;;;5.70;99.90;;;;;;4982041;28;20219;-72
2023/02/12 03:46:26;;;;;;;39.95;25.80;;;5.80;99.90;;;;;;4983425;28;20057;-72
2023/02/12 03:49:01;;;;;;;43.05;25.38;;;5.70;99.90;;;;;;4997264;28;20660;-72
2023/02/12 03:51:48;;;;;;;105.07;36.92;;;5.70;99.90;;;;;;4978400;28;20053;-72
2023/02/12 03:54:18;;;;;;;104.90;38.60;;;5.70;99.90;;;;;;4978359;28;20045;-72
2023/02/12 03:56:50;;;;;;;44.55;27.95;;;5.70;99.90;;;;;;4980347;28;20578;-72
2023/02/12 03:59:22;;;;;;;129.00;41.05;;;5.70;99.90;;;;;;4978950;28;20131;-72
2023/02/12 04:01:50;;;;;;;54.90;29.48;;;5.70;99.90;;;;;;4977744;28;20050;-72
2023/02/12 04:04:17;;;;;;;154.30;41.63;;;5.70;99.90;;;;;;4999236;28;20151;-72
2023/02/12 04:06:44;;;;;;;195.30;42.95;;;5.80;99.90;;;;;;4996147;28;20050;-72
2023/02/12 04:09:11;;;;;;;240.93;48.40;;;5.80;99.90;;;;;;4980288;28;20046;-72
2023/02/12 04:11:46;;;;;;;303.25;54.53;;;5.80;99.90;;;;;;4994834;28;20057;-72
2023/02/12 04:14:30;;;;;;;273.98;49.95;;;5.80;99.90;;;;;;4975794;28;20045;-72
2023/02/12 04:17:05;;;;;;;174.10;40.17;;;5.80;99.90;;;;;;4994855;28;20045;-71
2023/02/12 04:19:57;;;;;;;168.80;40.35;;;5.70;99.90;;;;;;4988561;28;20551;-71
2023/02/12 04:22:39;;;;;;;60.72;30.42;;;5.80;99.90;;;;;;4989645;28;20060;-71
2023/02/12 04:25:17;;;;;;;134.98;37.10;;;5.80;99.90;;;;;;4993311;28;20255;-72
2023/02/12 04:27:56;;;;;;;102.38;33.13;;;5.80;99.90;;;;;;4988405;28;20088;-72
2023/02/12 04:30:34;;;;;;;190.15;41.30;;;5.80;99.90;;;;;;4977927;28;20081;-74
2023/02/12 04:33:03;;;;;;;145.38;35.90;;;5.80;99.90;;;;;;4993312;28;20353;-72
2023/02/12 04:35:31;;;;;;;78.50;28.42;;;5.80;99.90;;;;;;4992619;28;20203;-72
2023/02/12 04:38:00;;;;;;;142.45;33.60;;;5.80;99.90;;;;;;4977287;28;20136;-72
2023/02/12 04:40:29;;;;;;;127.32;32.53;;;5.80;99.90;;;;;;4991873;28;20081;-72
2023/02/12 04:42:55;;;;;;;157.82;35.17;;;5.80;99.90;;;;;;4964827;28;20075;-72
2023/02/12 04:45:29;;;;;;;136.48;33.30;;;5.80;99.90;;;;;;4993079;28;20058;-72
2023/02/12 04:47:55;;;;;;;51.13;24.10;;;5.80;99.90;;;;;;4998908;28;20116;-72
2023/02/12 04:50:22;;;;;;;172.77;39.30;;;5.80;99.90;;;;;;4960641;28;20038;-72
2023/02/12 04:52:48;;;;;;;192.02;42.20;;;5.80;99.90;;;;;;4976037;28;20048;-72
2023/02/12 04:55:14;;;;;;;226.25;44.67;;;5.80;99.90;;;;;;4975717;28;20054;-72
2023/02/12 04:57:40;;;;;;;246.82;46.22;;;5.80;99.90;;;;;;4976012;28;20050;-72
2023/02/12 05:00:10;;;;;;;200.77;41.70;;;5.80;99.90;;;;;;4991475;28;20420;-72
2023/02/12 05:02:36;;;;;;;284.13;48.83;;;5.80;99.90;;;;;;4988951;28;20069;-72
2023/02/12 05:05:02;;;;;;;241.82;48.85;;;5.80;99.90;;;;;;4978177;28;20086;-72
2023/02/12 05:07:28;;;;;;;228.70;47.28;;;5.80;99.90;;;;;;4979452;28;20060;-72
2023/02/12 05:09:57;;;;;;;226.27;48.05;;;5.80;99.90;;;;;;4980260;28;20639;-72
2023/02/12 05:12:23;;;;;;;219.23;48.80;;;5.80;99.90;;;;;;4979283;28;20053;-72
2023/02/12 05:14:48;;;;;;;230.48;50.60;;;5.70;99.90;;;;;;4995515;28;20049;-72
2023/02/12 05:17:14;;;;;;;217.23;49.42;;;5.70;99.90;;;;;;4980658;28;20057;-72
2023/02/12 05:19:40;;;;;;;303.73;57.90;;;5.70;99.90;;;;;;4978351;28;20041;-71
2023/02/12 05:22:06;;;;;;;192.52;46.55;;;5.60;99.90;;;;;;4997528;28;20037;-72
2023/02/12 05:24:31;;;;;;;184.40;46.13;;;5.60;99.90;;;;;;4949870;28;20073;-72
2023/02/12 05:26:57;;;;;;;295.90;57.75;;;5.50;99.90;;;;;;4995677;28;20868;-71
2023/02/12 05:29:23;;;;;;;254.82;55.13;;;5.50;99.90;;;;;;4980809;28;20045;-72
2023/02/12 05:31:49;;;;;;;267.60;58.42;;;5.50;99.90;;;;;;4981023;28;20079;-73
2023/02/12 05:34:15;;;;;;;256.35;53.92;;;5.40;99.90;;;;;;4977644;28;20046;-72
2023/02/12 05:36:40;;;;;;;240.15;52.38;;;5.40;99.90;;;;;;4981488;28;20137;-72
2023/02/12 05:39:06;;;;;;;253.57;56.42;;;5.40;99.90;;;;;;4977316;28;20701;-72
2023/02/12 05:41:35;;;;;;;254.25;56.17;;;5.40;99.90;;;;;;4981201;28;20111;-72
2023/02/12 05:44:05;;;;;;;269.23;59.67;;;5.30;99.90;;;;;;4979726;28;20079;-72
2023/02/12 05:46:31;;;;;;;190.23;52.75;;;5.30;99.90;;;;;;4967281;28;20132;-72
2023/02/12 05:48:57;;;;;;;160.20;48.30;;;5.30;99.90;;;;;;4978544;28;20476;-72
2023/02/12 05:51:27;;;;;;;279.20;63.65;;;5.30;99.90;;;;;;4995733;28;20593;-72
2023/02/12 05:53:59;;;;;;;217.48;56.70;;;5.30;99.90;;;;;;4980585;28;20551;-72
2023/02/12 05:56:28;;;;;;;180.75;51.42;;;5.30;99.90;;;;;;4978376;28;20037;-72
2023/02/12 05:58:57;;;;;;;243.75;59.20;;;5.30;99.90;;;;;;4978347;28;20053;-72
2023/02/12 06:01:34;;;;;;;244.18;59.08;;;5.30;99.90;;;;;;4990970;28;20064;-72
2023/02/12 06:04:02;;;;;;;243.95;56.05;;;5.30;99.90;;;;;;5004672;28;20049;-73
2023/02/12 06:06:29;;;;;;;213.10;56.22;;;5.30;99.90;;;;;;4989047;28;20056;-73
2023/02/12 06:08:55;;;;;;;196.63;52.63;;;5.30;99.90;;;;;;4988321;28;20412;-72
2023/02/12 06:11:21;;;;;;;271.42;62.75;;;5.30;99.90;;;;;;5007176;28;20034;-72
2023/02/12 06:13:47;;;;;;;200.38;54.10;;;5.30;99.90;;;;;;5006144;28;20156;-72
2023/02/12 06:16:25;;;;;;;171.00;51.47;;;5.30;99.90;;;;;;5000989;28;20511;-72
2023/02/12 06:18:52;;;;;;;90.82;41.58;;;5.30;99.90;;;;;;5004561;28;20053;-72
2023/02/12 06:21:19;;;;;;;102.45;41.58;;;5.30;99.90;;;;;;5002522;28;20504;-72
2023/02/12 06:23:49;;;;;;;199.18;53.38;;;5.30;99.90;;;;;;4989701;28;20169;-72
2023/02/12 06:26:15;;;;;;;226.35;58.33;;;5.30;99.90;;;;;;4982216;28;21208;-72
2023/02/12 06:28:41;;;;;;;188.32;54.15;;;5.30;99.90;;;;;;4987485;28;20071;-72
2023/02/12 06:31:21;;;;;;;203.57;54.05;;;5.30;99.90;;;;;;5000533;28;20357;-74
2023/02/12 06:33:48;;;;;;;174.38;53.38;;;5.30;99.90;;;;;;4988401;28;20073;-72
2023/02/12 06:36:14;;;;;;;183.02;55.30;;;5.30;99.90;;;;;;4970288;28;20045;-73
2023/02/12 06:38:40;;;;;;;157.45;51.22;;;5.30;99.90;;;;;;5001940;28;20034;-73
2023/02/12 06:41:06;;;;;;;142.88;50.08;;;5.30;99.90;;;;;;4985238;28;20068;-72
2023/02/12 06:43:32;;;;;;;137.90;49.10;;;5.30;99.90;;;;;;4972095;28;20448;-72
2023/02/12 06:46:02;;;;;;;168.25;53.65;;;5.30;99.90;;;;;;4969945;28;20049;-73
2023/02/12 06:48:28;;;;;;;129.25;48.35;;;5.30;99.90;;;;;;5001601;28;20698;-72
2023/02/12 06:50:54;;;;;;;97.30;42.42;;;5.30;99.90;;;;;;4969730;28;20397;-72
2023/02/12 06:53:20;;;;;;;141.10;49.08;;;5.30;99.90;;;;;;4987113;28;20040;-72
2023/02/12 06:55:46;;;;;;;122.40;46.17;;;5.30;99.90;;;;;;4985615;28;20508;-72
2023/02/12 06:58:11;;;;;;;83.22;40.25;;;5.30;99.90;;;;;;4969411;28;20400;-73
2023/02/12 07:00:41;;;;;;;96.00;41.90;;;5.30;99.90;;;;;;5000398;28;20523;-73
2023/02/12 07:03:09;;;;;;;141.25;49.67;;;5.30;99.90;;;;;;4978033;28;20045;-73
2023/02/12 07:05:38;;;;;;;153.82;50.78;;;5.30;99.90;;;;;;5001944;28;20041;-73
2023/02/12 07:08:04;;;;;;;164.50;52.72;;;5.30;99.90;;;;;;4984757;28;21374;-73
2023/02/12 07:10:30;;;;;;;156.63;50.92;;;5.30;99.90;;;;;;4985679;28;20045;-73
2023/02/12 07:12:56;;;;;;;132.73;47.80;;;5.30;99.90;;;;;;4986934;28;20106;-73
2023/02/12 07:15:22;;;;;;;193.10;55.20;;;5.30;99.90;;;;;;4984823;28;20280;-73
2023/02/12 07:17:47;;;;;;;216.38;56.75;;;5.30;99.90;;;;;;5002567;28;20046;-73
2023/02/12 07:20:13;;;;;;;189.20;54.95;;;5.30;99.90;;;;;;4985785;28;20050;-71
2023/02/12 07:22:39;;;;;;;211.55;57.33;;;5.30;99.90;;;;;;4985715;28;20760;-71
2023/02/12 07:25:05;;;;;;;224.77;59.28;;;5.40;99.90;;;;;;5003501;28;20045;-73
2023/02/12 07:27:31;;;;;;;197.15;57.28;;;5.40;99.90;;;;;;5000567;28;20055;-73
2023/02/12 07:29:57;;;;;;;139.80;51.80;;;5.40;99.90;;;;;;4970006;28;20188;-73
2023/02/12 07:32:22;;;;;;;121.70;47.88;;;5.40;99.90;;;;;;4968461;28;21812;-73
2023/02/12 07:34:48;;;;;;;221.85;59.70;;;5.40;99.90;;;;;;4967467;28;20859;-73
2023/02/12 07:37:15;;;;;;;193.38;56.05;;;5.40;99.90;;;;;;4968773;28;20235;-73
2023/02/12 07:39:41;;;;;;;134.80;48.55;;;5.40;99.90;;;;;;4985648;28;20484;-73
2023/02/12 07:42:07;;;;;;;277.25;65.55;;;5.40;99.90;;;;;;4971640;28;20060;-73
2023/02/12 07:44:33;;;;;;;201.50;60.38;;;5.50;99.90;;;;;;5005799;28;20067;-73
2023/02/12 07:47:05;;;;;;;215.80;59.90;;;5.50;99.90;;;;;;4988302;28;20053;-73
2023/02/12 07:49:31;;;;;;;224.02;61.00;;;5.50;99.90;;;;;;4970762;28;20042;-73
2023/02/12 07:51:57;;;;;;;194.77;59.88;;;5.50;99.90;;;;;;4983361;28;20308;-73
2023/02/12 07:54:22;;;;;;;239.05;62.38;;;5.50;99.90;;;;;;4969409;28;20195;-73
2023/02/12 07:56:48;;;;;;;199.35;60.72;;;5.60;99.90;;;;;;4983754;28;20640;-73
2023/02/12 07:59:16;;;;;;;168.10;56.85;;;5.60;99.90;;;;;;4971653;28;20037;-72
2023/02/12 08:01:50;;;;;;;185.23;57.38;;;5.60;99.90;;;;;;4979818;28;20046;-74
2023/02/12 08:04:21;;;;;;;203.25;60.72;;;5.60;99.90;;;;;;4985071;28;20095;-72
2023/02/12 08:06:50;;;;;;;169.18;55.90;;;5.60;99.90;;;;;;5001770;28;20050;-72
2023/02/12 08:09:20;;;;;;;182.30;61.05;;;5.70;99.90;;;;;;4982092;28;20195;-73
2023/02/12 08:11:46;;;;;;;152.63;53.72;;;5.60;99.90;;;;;;4982603;28;20540;-71
2023/02/12 08:14:14;;;;;;;179.63;59.55;;;5.70;99.90;;;;;;4984164;28;20096;-72
2023/02/12 08:16:42;;;;;;;166.30;56.53;;;5.70;99.90;;;;;;4983532;28;20123;-72
2023/02/12 08:19:08;;;;;;;135.05;53.42;;;5.70;99.90;;;;;;5000753;28;20546;-72
2023/02/12 08:21:34;;;;;;;161.00;57.38;;;5.80;99.90;;;;;;4984597;28;20045;-72
2023/02/12 08:24:00;;;;;;;155.98;56.10;;;5.70;99.90;;;;;;4968263;28;20046;-72
2023/02/12 08:26:28;;;;;;;149.52;55.92;;;5.80;99.90;;;;;;4968179;28;20647;-72
2023/02/12 08:28:55;;;;;;;137.43;54.53;;;5.80;99.90;;;;;;5001397;28;20049;-72
2023/02/12 08:31:28;;;;;;;130.55;51.90;;;5.80;99.90;;;;;;5001113;28;20132;-72
2023/02/12 08:33:55;;;;;;;137.77;54.08;;;5.90;99.90;;;;;;5001877;28;20539;-72
2023/02/12 08:36:23;;;;;;;129.25;52.13;;;5.90;99.90;;;;;;4982610;28;20048;-72
2023/02/12 08:38:50;;;;;;;131.25;54.47;;;5.90;99.90;;;;;;5004302;28;20064;-72
2023/02/12 08:41:19;;;;;;;124.45;51.95;;;5.90;99.90;;;;;;4987262;28;20056;-72
2023/02/12 08:43:45;;;;;;;118.50;53.25;;;6.00;99.90;;;;;;5002974;28;20055;-72
2023/02/12 08:46:20;;;;;;;118.78;51.03;;;6.00;99.90;;;;;;4955536;28;21317;-72
2023/02/12 08:48:46;;;;;;;85.53;43.70;;;6.10;99.90;;;;;;5003569;28;20049;-72
2023/02/12 08:51:21;;;;;;;109.47;50.30;;;6.10;99.90;;;;;;5003522;28;21764;-72
2023/02/12 08:53:50;;;;;;;104.20;47.35;;;6.10;99.90;;;;;;5001731;28;20041;-72
2023/02/12 08:56:17;;;;;;;94.43;46.22;;;6.10;99.90;;;;;;5003413;28;20088;-72
2023/02/12 08:58:43;;;;;;;95.55;47.45;;;6.20;99.90;;;;;;5001269;28;20041;-73
2023/02/12 09:01:23;;;;;;;86.55;44.95;;;6.20;99.90;;;;;;5003611;28;20053;-72
2023/02/12 09:03:50;;;;;;;80.22;44.50;;;6.30;99.90;;;;;;4988769;28;20513;-73
2023/02/12 09:06:18;;;;;;;72.10;42.90;;;6.30;99.90;;;;;;4987933;28;20188;-72
2023/02/12 09:08:44;;;;;;;81.65;43.72;;;6.30;99.90;;;;;;4972925;28;20084;-72
2023/02/12 09:11:31;;;;;;;76.70;42.53;;;6.40;99.90;;;;;;5003248;28;20051;-73
2023/02/12 09:13:59;;;;;;;74.10;42.88;;;6.40;99.90;;;;;;5005699;28;20065;-74
2023/02/12 09:16:30;;;;;;;74.57;41.70;;;6.40;99.90;;;;;;4983342;28;20044;-73
2023/02/12 09:18:56;;;;;;;71.00;40.55;;;6.50;99.90;;;;;;5001368;28;20080;-73
2023/02/12 09:21:22;;;;;;;66.28;39.22;;;6.50;99.90;;;;;;4987396;28;20268;-73
2023/02/12 09:23:49;;;;;;;71.95;41.53;;;6.60;99.90;;;;;;4985971;28;20119;-73
2023/02/12 09:26:20;;;;;;;62.55;39.35;;;6.60;99.90;;;;;;5002979;28;20052;-73
2023/02/12 09:28:47;;;;;;;63.60;39.50;;;6.60;99.90;;;;;;4986878;28;20655;-74
2023/02/12 09:31:21;;;;;;;66.30;39.75;;;6.70;99.90;;;;;;4987546;28;20044;-73
2023/02/12 09:33:48;;;;;;;70.40;41.65;;;6.70;99.90;;;;;;5001290;28;20057;-73
2023/02/12 09:36:15;;;;;;;65.22;40.40;;;6.70;99.90;;;;;;4986719;28;20045;-73
2023/02/12 09:38:42;;;;;;;58.75;37.78;;;6.80;99.90;;;;;;5001233;28;20770;-73
2023/02/12 09:41:20;;;;;;;63.17;39.50;;;6.80;99.90;;;;;;4986836;28;20198;-73
2023/02/12 09:44:19;;;;;;;60.10;37.35;;;6.80;99.90;;;;;;4984370;28;20721;-73
2023/02/12 09:46:55;;;;;;;55.83;37.05;;;6.90;99.90;;;;;;5004671;28;20052;-73
2023/02/12 09:49:45;;;;;;;57.42;38.20;;;6.90;99.90;;;;;;4986801;28;20457;-73
2023/02/12 09:52:23;;;;;;;;;;;6.90;99.90;;;;;;5001151;28;21430;-73
2023/02/12 09:54:49;;;;;;;56.30;36.20;;;7.00;99.90;;;;;;5002304;28;19921;-74
2023/02/12 09:57:28;;;;;;;55.13;36.75;;;7.00;99.90;;;;;;4986334;28;20127;-73
2023/02/12 10:00:17;;;;;;;52.42;35.80;;;7.00;99.90;;;;;;5002833;28;20281;-73
2023/02/12 10:02:43;;;;;;;56.70;36.47;;;7.10;99.90;;;;;;4986635;28;20135;-72
2023/02/12 10:05:44;;;;;;;55.28;36.20;;;7.20;99.90;;;;;;4984133;28;20958;-72
2023/02/12 10:08:19;;;;;;;49.80;35.58;;;7.20;99.90;;;;;;4973088;28;20075;-73
2023/02/12 10:11:14;;;;;;;52.50;34.17;;;7.20;99.90;;;;;;5018960;28;20057;-72
2023/02/12 10:14:08;;;;;;;49.67;34.65;;;7.30;99.90;;;;;;5003506;28;20164;-72
2023/02/12 10:17:07;;;;;;;49.08;34.15;;;7.30;99.90;;;;;;4986396;28;20140;-73
2023/02/12 10:20:04;;;;;;;49.22;32.75;;;7.40;99.90;;;;;;4986480;28;20660;-72
2023/02/12 10:23:04;;;;;;;48.15;33.45;;;7.40;99.90;;;;;;5001552;28;20143;-73
2023/02/12 10:25:39;;;;;;;47.53;33.40;;;7.50;99.90;;;;;;4985018;28;20049;-73
2023/02/12 10:28:14;;;;;;;49.28;31.70;;;7.50;99.90;;;;;;4984412;28;20052;-72
2023/02/12 10:31:03;;;;;;;42.85;31.33;;;7.60;99.90;;;;;;4982512;28;20079;-72
2023/02/12 10:33:41;;;;;;;45.67;30.30;;;7.70;99.90;;;;;;4983651;28;20048;-71
2023/02/12 10:36:07;;;;;;;43.25;30.20;;;7.80;99.90;;;;;;4985873;28;20497;-74
2023/02/12 10:38:38;;;;;;;41.08;30.33;;;7.80;99.90;;;;;;4999441;28;20060;-72
2023/02/12 10:41:04;;;;;;;38.60;28.67;;;7.90;99.90;;;;;;5000302;28;20051;-72
2023/02/12 10:43:30;;;;;;;38.92;29.33;;;8.00;99.90;;;;;;4999079;28;20053;-72
2023/02/12 10:45:56;;;;;;;38.28;27.42;;;8.10;99.90;;;;;;4967557;28;20112;-73
2023/02/12 10:48:38;;;;;;;36.72;26.85;;;8.20;99.90;;;;;;4996509;28;20551;-72
2023/02/12 10:51:07;;;;;;;34.00;27.02;;;8.30;99.90;;;;;;4985254;28;20064;-73
2023/02/12 10:53:40;;;;;;;38.20;27.70;;;8.40;99.90;;;;;;5018737;28;20045;-73
2023/02/12 10:56:06;;;;;;;32.33;25.92;;;8.50;99.90;;;;;;5000391;28;20052;-73
2023/02/12 10:58:31;;;;;;;32.08;24.55;;;8.60;99.90;;;;;;4980536;28;20045;-73
2023/02/12 11:01:00;;;;;;;29.75;23.13;;;8.80;99.90;;;;;;4996268;28;21626;-72
2023/02/12 11:03:37;;;;;;;35.03;24.23;;;8.80;99.90;;;;;;4987205;28;20135;-73
2023/02/12 11:06:19;;;;;;;30.33;24.17;;;8.90;99.90;;;;;;4999307;28;20091;-73
2023/02/12 11:08:45;;;;;;;30.13;22.73;;;9.00;99.90;;;;;;5000385;28;20127;-72
2023/02/12 11:11:38;;;;;;;28.83;21.83;;;9.10;99.90;;;;;;4985234;28;20575;-72
2023/02/12 11:14:13;;;;;;;30.60;23.95;;;9.10;99.90;;;;;;4979647;28;20044;-72
2023/02/12 11:16:57;;;;;;;29.00;22.13;;;9.20;99.90;;;;;;5000106;28;20060;-72
2023/02/12 11:19:29;;;;;;;27.50;20.92;;;9.20;99.90;;;;;;5001567;28;20053;-72
2023/02/12 11:22:13;;;;;;;28.17;20.65;;;9.20;99.90;;;;;;4998804;28;20659;-72
2023/02/12 11:24:39;;;;;;;27.77;19.67;;;9.30;99.90;;;;;;5002169;28;20240;-72
2023/02/12 11:27:14;;;;;;;25.10;18.92;;;9.30;99.90;;;;;;4969190;28;20370;-72
2023/02/12 11:29:41;;;;;;;22.15;16.83;;;9.40;99.90;;;;;;4986904;28;20041;-72
2023/02/12 11:32:14;;;;;;;18.92;14.68;;;9.40;99.90;;;;;;4982836;28;20049;-72
2023/02/12 11:34:40;;;;;;;15.23;11.25;;;9.40;99.90;;;;;;5000028;28;20045;-73
2023/02/12 11:37:16;;;;;;;14.13;9.50;;;9.50;99.90;;;;;;5000178;28;20241;-72
2023/02/12 11:39:47;;;;;;;15.30;10.60;;;9.50;99.90;;;;;;4998212;28;20061;-72
2023/02/12 11:42:25;;;;;;;15.10;11.02;;;9.50;99.90;;;;;;4982573;28;20049;-73
2023/02/12 11:44:53;;;;;;;14.75;10.52;;;9.50;99.90;;;;;;5000604;28;20569;-72
2023/02/12 11:47:23;;;;;;;14.48;10.32;;;9.50;99.90;;;;;;4999062;28;20102;-72
2023/02/12 11:49:51;;;;;;;15.27;10.33;;;9.60;99.90;;;;;;4993378;28;20051;-72
2023/02/12 11:52:30;;;;;;;15.05;10.48;;;9.60;99.90;;;;;;4981492;28;20084;-72
2023/02/12 11:55:02;;;;;;;16.55;10.63;;;9.60;99.90;;;;;;4999828;28;20060;-72
2023/02/12 11:57:34;;;;;;;17.65;10.63;;;9.60;99.90;;;;;;4997544;28;20301;-74
2023/02/12 12:00:11;;;;;;;15.43;11.00;;;9.60;99.90;;;;;;5000575;28;20117;-72
2023/02/12 12:02:41;;;;;;;14.55;10.52;;;9.70;99.90;;;;;;4999560;28;20659;-72
2023/02/12 12:05:14;;;;;;;14.05;10.80;;;9.70;99.90;;;;;;5000131;28;20083;-72
2023/02/12 12:07:44;;;;;;;14.85;10.38;;;9.70;99.90;;;;;;4999720;28;20115;-72
2023/02/12 12:10:39;;;;;;;15.73;12.10;;;9.70;99.90;;;;;;5003800;28;20118;-72
2023/02/12 12:13:14;;;;;;;15.57;11.43;;;9.70;99.90;;;;;;4975028;28;20562;-73
2023/02/12 12:21:35;;;;;;;14.68;11.35;;;9.80;99.90;;;;;;5004471;28;20142;-73
2023/02/12 12:24:25;;;;;;;14.10;10.02;;;9.80;99.90;;;;;;4986843;28;20155;-73
2023/02/12 12:27:13;;;;;;;13.35;10.40;;;9.80;99.90;;;;;;4986906;28;20513;-72
2023/02/12 12:29:49;;;;;;;14.40;10.40;;;9.80;99.90;;;;;;4984676;28;20049;-73
2023/02/12 12:32:18;;;;;;;14.68;10.80;;;9.70;99.90;;;;;;5005473;28;20072;-75
2023/02/12 12:34:46;;;;;;;15.25;11.13;;;9.80;99.90;;;;;;5003499;28;20142;-78
2023/02/12 12:37:41;;;;;;;15.30;10.52;;;9.90;99.90;;;;;;4958251;28;20132;-76
2023/02/12 12:40:25;;;;;;;12.77;10.43;;;9.90;99.90;;;;;;4987762;28;20052;-79
2023/02/12 12:43:12;;;;;;;14.68;9.95;;;9.90;99.90;;;;;;4990925;28;20055;-73
2023/02/12 12:46:03;;;;;;;11.95;9.02;;;9.90;99.90;;;;;;4989690;28;20131;-74
2023/02/12 12:48:47;;;;;;;12.50;9.00;;;9.90;99.90;;;;;;5004844;28;20029;-75
2023/02/12 12:51:13;;;;;;;14.10;9.73;;;9.80;99.90;;;;;;5005641;28;20037;-75
2023/02/12 12:53:48;;;;;;;13.25;9.65;;;9.70;99.90;;;;;;4990350;28;21743;-75
2023/02/12 12:56:35;;;;;;;12.00;8.98;;;9.70;99.90;;;;;;5003741;28;20061;-74
2023/02/12 12:59:10;;;;;;;12.35;8.57;;;9.70;99.90;;;;;;4989111;28;20092;-74
2023/02/12 13:02:14;;;;;;;10.95;7.50;;;9.60;99.90;;;;;;4997977;28;20063;-73
2023/02/12 13:05:25;;;;;;;11.68;6.97;;;9.60;99.90;;;;;;5005386;28;20564;-72
2023/02/12 13:08:21;;;;;;;10.98;7.60;;;9.60;99.90;;;;;;4966808;28;20060;-72